This is the latest recevied weather packets stored in our database for station/object HA3YA-WX. If no packets are shown the sender has not sent any weather packets the latest 10 day(s).
| Time | Temp. | Humidity | Pressure | Rain* | Wind** | Luminosity | Snow |
|---|---|---|---|---|---|---|---|
| 1788408684 | 16.67° C | 90% | 1006 hPa | - | - | - | - |
| 1788408084 | 16.67° C | 90% | 1006 hPa | - | - | - | - |
| 1788407485 | 16.11° C | 90% | 1006 hPa | - | - | - | - |
| 1788406884 | 16.11° C | 90% | 1006.4 hPa | - | - | - | - |
| 1788406284 | 16.11° C | 90% | 1006.4 hPa | - | - | - | - |
| 1788405684 | 16.67° C | 89% | 1006.4 hPa | - | - | - | - |
| 1788405084 | 16.67° C | 89% | 1006.4 hPa | - | - | - | - |
| 1788404485 | 16.67° C | 89% | 1006.4 hPa | - | - | - | - |
| 1788403885 | 16.67° C | 90% | 1006.3 hPa | - | - | - | - |
| 1788402685 | 16.67° C | 91% | 1006.3 hPa | - | - | - | - |
| 1788402085 | 16.67° C | 90% | 1006.3 hPa | - | - | - | - |
| 1788401484 | 16.67° C | 89% | 1006.3 hPa | - | - | - | - |
| 1788376284 | 21.67° C | 76% | 1005 hPa | - | - | - | - |
| 1788375685 | 22.22° C | 76% | 1005 hPa | - | - | - | - |
| 1788373884 | 22.78° C | 73% | 1005 hPa | - | - | - | - |
| 1788373284 | 22.78° C | 72% | 1005 hPa | - | - | - | - |
| 1788372684 | 22.78° C | 72% | 1005 hPa | - | - | - | - |
| 1788372085 | 22.78° C | 71% | 1005 hPa | - | - | - | - |
| 1788370285 | 23.89° C | 70% | 1004 hPa | - | - | - | - |
| 1788369684 | 23.89° C | 69% | 1004 hPa | - | - | - | - |
| 1788369084 | 23.89° C | 70% | 1004 hPa | - | - | - | - |
| 1788366684 | 25.56° C | 71% | 1005 hPa | - | - | - | - |
| 1788365484 | 26.67° C | 67% | 1005 hPa | - | - | - | - |
| 1788362485 | 28.33° C | 65% | 1005 hPa | - | - | - | - |
| 1788361885 | 29.44° C | 66% | 1005 hPa | - | - | - | - |
* Rain since midnight (hover to see other rain measurements)
** Current wind speed in m/s (hover to see current wind gust speed)